sensor_id;sensor_type;location;lat;lon;timestamp;P1;durP1;ratioP1;P2;durP2;ratioP2
8574;SDS011;4325;42.520;27.448;2024-01-07T00:00:48;8.77;;;3.17;;
8574;SDS011;4325;42.520;27.448;2024-01-07T00:03:15;7.27;;;4.00;;
8574;SDS011;4325;42.520;27.448;2024-01-07T00:05:42;7.60;;;3.60;;
8574;SDS011;4325;42.520;27.448;2024-01-07T00:08:10;4.73;;;3.30;;
8574;SDS011;4325;42.520;27.448;2024-01-07T00:10:37;7.70;;;3.80;;
8574;SDS011;4325;42.520;27.448;2024-01-07T00:13:04;5.90;;;3.37;;
8574;SDS011;4325;42.520;27.448;2024-01-07T00:15:31;9.37;;;3.87;;
8574;SDS011;4325;42.520;27.448;2024-01-07T00:17:58;8.50;;;3.83;;
8574;SDS011;4325;42.520;27.448;2024-01-07T00:20:25;8.87;;;3.90;;
8574;SDS011;4325;42.520;27.448;2024-01-07T00:22:52;8.03;;;3.90;;
8574;SDS011;4325;42.520;27.448;2024-01-07T00:25:21;6.27;;;3.23;;
8574;SDS011;4325;42.520;27.448;2024-01-07T00:27:48;5.90;;;3.43;;
8574;SDS011;4325;42.520;27.448;2024-01-07T00:30:16;9.57;;;3.73;;
8574;SDS011;4325;42.520;27.448;2024-01-07T00:32:43;7.33;;;3.60;;
8574;SDS011;4325;42.520;27.448;2024-01-07T00:35:10;7.83;;;3.67;;
8574;SDS011;4325;42.520;27.448;2024-01-07T00:37:37;6.13;;;3.37;;
8574;SDS011;4325;42.520;27.448;2024-01-07T00:40:05;4.77;;;3.53;;
8574;SDS011;4325;42.520;27.448;2024-01-07T00:42:34;11.27;;;5.00;;
8574;SDS011;4325;42.520;27.448;2024-01-07T00:45:01;9.97;;;5.00;;
8574;SDS011;4325;42.520;27.448;2024-01-07T00:47:29;8.07;;;5.00;;
8574;SDS011;4325;42.520;27.448;2024-01-07T00:49:56;7.30;;;4.40;;
8574;SDS011;4325;42.520;27.448;2024-01-07T00:52:23;9.93;;;3.93;;
8574;SDS011;4325;42.520;27.448;2024-01-07T00:54:50;7.67;;;4.00;;
8574;SDS011;4325;42.520;27.448;2024-01-07T00:57:17;6.20;;;3.70;;
8574;SDS011;4325;42.520;27.448;2024-01-07T00:59:46;9.97;;;4.03;;
8574;SDS011;4325;42.520;27.448;2024-01-07T01:02:13;10.63;;;4.63;;
8574;SDS011;4325;42.520;27.448;2024-01-07T01:04:40;9.57;;;3.57;;
8574;SDS011;4325;42.520;27.448;2024-01-07T01:07:07;7.67;;;3.43;;
8574;SDS011;4325;42.520;27.448;2024-01-07T01:09:34;8.97;;;4.17;;
8574;SDS011;4325;42.520;27.448;2024-01-07T01:12:01;5.77;;;3.57;;
8574;SDS011;4325;42.520;27.448;2024-01-07T01:14:29;4.67;;;3.47;;
8574;SDS011;4325;42.520;27.448;2024-01-07T01:16:57;8.50;;;3.83;;
8574;SDS011;4325;42.520;27.448;2024-01-07T01:19:24;6.17;;;3.53;;
8574;SDS011;4325;42.520;27.448;2024-01-07T01:21:51;13.50;;;4.23;;
8574;SDS011;4325;42.520;27.448;2024-01-07T01:24:19;7.00;;;3.70;;
8574;SDS011;4325;42.520;27.448;2024-01-07T01:26:46;7.60;;;3.93;;
8574;SDS011;4325;42.520;27.448;2024-01-07T01:29:13;6.57;;;3.23;;
8574;SDS011;4325;42.520;27.448;2024-01-07T01:31:40;5.03;;;3.57;;
8574;SDS011;4325;42.520;27.448;2024-01-07T01:34:08;10.83;;;3.73;;
8574;SDS011;4325;42.520;27.448;2024-01-07T01:36:35;6.73;;;3.80;;
8574;SDS011;4325;42.520;27.448;2024-01-07T01:39:02;8.37;;;4.40;;
8574;SDS011;4325;42.520;27.448;2024-01-07T01:41:29;8.33;;;4.23;;
8574;SDS011;4325;42.520;27.448;2024-01-07T01:43:57;5.17;;;3.83;;
8574;SDS011;4325;42.520;27.448;2024-01-07T01:46:24;6.43;;;4.10;;
8574;SDS011;4325;42.520;27.448;2024-01-07T01:48:51;5.83;;;3.97;;
8574;SDS011;4325;42.520;27.448;2024-01-07T01:51:20;6.20;;;3.90;;
8574;SDS011;4325;42.520;27.448;2024-01-07T01:53:48;6.20;;;4.30;;
8574;SDS011;4325;42.520;27.448;2024-01-07T01:56:17;9.13;;;4.70;;
8574;SDS011;4325;42.520;27.448;2024-01-07T01:58:46;11.20;;;4.57;;
8574;SDS011;4325;42.520;27.448;2024-01-07T02:01:22;7.83;;;4.53;;
8574;SDS011;4325;42.520;27.448;2024-01-07T02:03:50;7.40;;;4.47;;
8574;SDS011;4325;42.520;27.448;2024-01-07T02:06:18;8.90;;;4.23;;
8574;SDS011;4325;42.520;27.448;2024-01-07T02:08:48;7.20;;;3.70;;
8574;SDS011;4325;42.520;27.448;2024-01-07T02:11:16;6.30;;;4.23;;
8574;SDS011;4325;42.520;27.448;2024-01-07T02:13:44;5.50;;;4.13;;
8574;SDS011;4325;42.520;27.448;2024-01-07T02:16:11;7.77;;;4.60;;
8574;SDS011;4325;42.520;27.448;2024-01-07T02:18:38;7.50;;;3.70;;
8574;SDS011;4325;42.520;27.448;2024-01-07T02:21:07;6.00;;;4.03;;
8574;SDS011;4325;42.520;27.448;2024-01-07T02:23:37;10.17;;;3.80;;
8574;SDS011;4325;42.520;27.448;2024-01-07T02:26:05;8.10;;;3.60;;
8574;SDS011;4325;42.520;27.448;2024-01-07T02:28:32;5.13;;;3.90;;
8574;SDS011;4325;42.520;27.448;2024-01-07T02:31:00;16.13;;;4.07;;
8574;SDS011;4325;42.520;27.448;2024-01-07T02:33:27;7.67;;;4.00;;
8574;SDS011;4325;42.520;27.448;2024-01-07T02:35:54;6.87;;;4.33;;
8574;SDS011;4325;42.520;27.448;2024-01-07T02:38:21;7.03;;;4.40;;
8574;SDS011;4325;42.520;27.448;2024-01-07T02:40:48;11.10;;;4.60;;
8574;SDS011;4325;42.520;27.448;2024-01-07T02:43:17;9.50;;;3.93;;
8574;SDS011;4325;42.520;27.448;2024-01-07T02:45:44;6.83;;;4.03;;
8574;SDS011;4325;42.520;27.448;2024-01-07T02:48:11;6.30;;;4.00;;
8574;SDS011;4325;42.520;27.448;2024-01-07T02:50:38;8.00;;;4.10;;
8574;SDS011;4325;42.520;27.448;2024-01-07T02:53:06;7.30;;;3.70;;
8574;SDS011;4325;42.520;27.448;2024-01-07T02:55:35;12.27;;;4.00;;
8574;SDS011;4325;42.520;27.448;2024-01-07T02:58:02;9.00;;;3.73;;
8574;SDS011;4325;42.520;27.448;2024-01-07T03:00:31;6.17;;;3.60;;
8574;SDS011;4325;42.520;27.448;2024-01-07T03:02:58;7.50;;;3.30;;
8574;SDS011;4325;42.520;27.448;2024-01-07T03:05:25;8.20;;;3.70;;
8574;SDS011;4325;42.520;27.448;2024-01-07T03:07:54;8.60;;;4.07;;
8574;SDS011;4325;42.520;27.448;2024-01-07T03:10:21;7.30;;;3.97;;
8574;SDS011;4325;42.520;27.448;2024-01-07T03:12:48;5.63;;;3.50;;
8574;SDS011;4325;42.520;27.448;2024-01-07T03:15:15;6.57;;;3.33;;
8574;SDS011;4325;42.520;27.448;2024-01-07T03:17:44;8.27;;;3.77;;
8574;SDS011;4325;42.520;27.448;2024-01-07T03:20:11;8.47;;;4.00;;
8574;SDS011;4325;42.520;27.448;2024-01-07T03:22:38;6.17;;;3.97;;
8574;SDS011;4325;42.520;27.448;2024-01-07T03:25:05;6.00;;;3.67;;
8574;SDS011;4325;42.520;27.448;2024-01-07T03:27:33;4.13;;;3.53;;
8574;SDS011;4325;42.520;27.448;2024-01-07T03:30:00;9.77;;;4.20;;
8574;SDS011;4325;42.520;27.448;2024-01-07T03:32:27;7.63;;;4.27;;
8574;SDS011;4325;42.520;27.448;2024-01-07T03:34:56;6.80;;;4.63;;
8574;SDS011;4325;42.520;27.448;2024-01-07T03:37:23;6.80;;;3.57;;
8574;SDS011;4325;42.520;27.448;2024-01-07T03:39:50;5.73;;;3.73;;
8574;SDS011;4325;42.520;27.448;2024-01-07T03:42:17;7.03;;;3.87;;
8574;SDS011;4325;42.520;27.448;2024-01-07T03:44:44;8.60;;;4.40;;
8574;SDS011;4325;42.520;27.448;2024-01-07T03:47:11;8.57;;;4.07;;
8574;SDS011;4325;42.520;27.448;2024-01-07T03:49:38;5.63;;;3.50;;
8574;SDS011;4325;42.520;27.448;2024-01-07T03:52:07;6.60;;;4.37;;
8574;SDS011;4325;42.520;27.448;2024-01-07T03:54:34;12.57;;;4.37;;
8574;SDS011;4325;42.520;27.448;2024-01-07T03:57:02;8.03;;;4.37;;
8574;SDS011;4325;42.520;27.448;2024-01-07T03:59:29;6.53;;;3.53;;
8574;SDS011;4325;42.520;27.448;2024-01-07T04:01:56;8.30;;;4.37;;
8574;SDS011;4325;42.520;27.448;2024-01-07T04:04:23;8.67;;;4.13;;
8574;SDS011;4325;42.520;27.448;2024-01-07T04:06:50;5.90;;;3.87;;
8574;SDS011;4325;42.520;27.448;2024-01-07T04:09:19;5.90;;;3.40;;
8574;SDS011;4325;42.520;27.448;2024-01-07T04:11:46;7.77;;;4.13;;
8574;SDS011;4325;42.520;27.448;2024-01-07T04:14:14;11.77;;;5.30;;
8574;SDS011;4325;42.520;27.448;2024-01-07T04:16:42;5.90;;;3.37;;
8574;SDS011;4325;42.520;27.448;2024-01-07T04:19:09;7.17;;;3.63;;
8574;SDS011;4325;42.520;27.448;2024-01-07T04:21:36;6.53;;;3.90;;
8574;SDS011;4325;42.520;27.448;2024-01-07T04:24:03;9.20;;;3.73;;
8574;SDS011;4325;42.520;27.448;2024-01-07T04:26:32;6.93;;;3.93;;
8574;SDS011;4325;42.520;27.448;2024-01-07T04:28:59;7.23;;;4.03;;
8574;SDS011;4325;42.520;27.448;2024-01-07T04:31:26;4.50;;;3.57;;
8574;SDS011;4325;42.520;27.448;2024-01-07T04:33:53;7.40;;;4.00;;
8574;SDS011;4325;42.520;27.448;2024-01-07T04:36:20;9.43;;;4.40;;
8574;SDS011;4325;42.520;27.448;2024-01-07T04:38:47;8.87;;;4.87;;
8574;SDS011;4325;42.520;27.448;2024-01-07T04:41:14;6.63;;;4.17;;
8574;SDS011;4325;42.520;27.448;2024-01-07T04:43:43;10.90;;;4.17;;
8574;SDS011;4325;42.520;27.448;2024-01-07T04:46:10;10.37;;;4.20;;
8574;SDS011;4325;42.520;27.448;2024-01-07T04:48:37;8.83;;;4.20;;
8574;SDS011;4325;42.520;27.448;2024-01-07T04:51:05;8.07;;;4.60;;
8574;SDS011;4325;42.520;27.448;2024-01-07T04:53:33;6.83;;;4.03;;
8574;SDS011;4325;42.520;27.448;2024-01-07T04:56:00;5.73;;;3.87;;
8574;SDS011;4325;42.520;27.448;2024-01-07T04:58:27;8.00;;;3.80;;
8574;SDS011;4325;42.520;27.448;2024-01-07T05:00:56;7.97;;;4.53;;
8574;SDS011;4325;42.520;27.448;2024-01-07T05:03:23;7.40;;;4.13;;
8574;SDS011;4325;42.520;27.448;2024-01-07T05:05:50;8.70;;;4.53;;
8574;SDS011;4325;42.520;27.448;2024-01-07T05:08:17;7.00;;;4.40;;
8574;SDS011;4325;42.520;27.448;2024-01-07T05:10:44;8.20;;;3.90;;
8574;SDS011;4325;42.520;27.448;2024-01-07T05:13:12;9.40;;;5.00;;
8574;SDS011;4325;42.520;27.448;2024-01-07T05:15:39;4.90;;;3.80;;
8574;SDS011;4325;42.520;27.448;2024-01-07T05:18:08;7.50;;;4.53;;
8574;SDS011;4325;42.520;27.448;2024-01-07T05:20:35;9.70;;;4.17;;
8574;SDS011;4325;42.520;27.448;2024-01-07T05:23:02;5.23;;;3.90;;
8574;SDS011;4325;42.520;27.448;2024-01-07T05:25:30;8.80;;;3.77;;
8574;SDS011;4325;42.520;27.448;2024-01-07T05:27:57;4.87;;;3.40;;
8574;SDS011;4325;42.520;27.448;2024-01-07T05:30:24;5.83;;;3.63;;
8574;SDS011;4325;42.520;27.448;2024-01-07T05:32:51;4.57;;;2.80;;
8574;SDS011;4325;42.520;27.448;2024-01-07T05:35:19;3.87;;;3.07;;
8574;SDS011;4325;42.520;27.448;2024-01-07T05:37:46;3.53;;;2.17;;
8574;SDS011;4325;42.520;27.448;2024-01-07T05:40:14;2.27;;;1.77;;
8574;SDS011;4325;42.520;27.448;2024-01-07T05:42:41;2.80;;;1.23;;
8574;SDS011;4325;42.520;27.448;2024-01-07T05:45:08;1.30;;;1.10;;
8574;SDS011;4325;42.520;27.448;2024-01-07T05:47:35;1.47;;;1.37;;
8574;SDS011;4325;42.520;27.448;2024-01-07T05:50:02;3.43;;;1.00;;
8574;SDS011;4325;42.520;27.448;2024-01-07T05:52:31;3.13;;;1.83;;
8574;SDS011;4325;42.520;27.448;2024-01-07T05:54:58;1.67;;;0.80;;
8574;SDS011;4325;42.520;27.448;2024-01-07T05:57:26;2.23;;;1.00;;
8574;SDS011;4325;42.520;27.448;2024-01-07T05:59:53;0.70;;;0.70;;
8574;SDS011;4325;42.520;27.448;2024-01-07T06:02:20;0.87;;;0.70;;
8574;SDS011;4325;42.520;27.448;2024-01-07T06:04:48;0.93;;;0.70;;
8574;SDS011;4325;42.520;27.448;2024-01-07T06:07:15;1.23;;;0.80;;
8574;SDS011;4325;42.520;27.448;2024-01-07T06:09:43;2.97;;;0.90;;
8574;SDS011;4325;42.520;27.448;2024-01-07T06:12:10;1.47;;;1.17;;
8574;SDS011;4325;42.520;27.448;2024-01-07T06:14:38;3.83;;;1.17;;
8574;SDS011;4325;42.520;27.448;2024-01-07T06:17:05;1.80;;;1.27;;
8574;SDS011;4325;42.520;27.448;2024-01-07T06:19:32;1.20;;;1.10;;
8574;SDS011;4325;42.520;27.448;2024-01-07T06:21:59;3.93;;;1.27;;
8574;SDS011;4325;42.520;27.448;2024-01-07T06:24:26;3.87;;;1.50;;
8574;SDS011;4325;42.520;27.448;2024-01-07T06:26:54;1.33;;;0.83;;
8574;SDS011;4325;42.520;27.448;2024-01-07T06:29:21;4.20;;;1.20;;
8574;SDS011;4325;42.520;27.448;2024-01-07T06:31:48;2.20;;;1.40;;
8574;SDS011;4325;42.520;27.448;2024-01-07T06:34:15;1.03;;;0.93;;
8574;SDS011;4325;42.520;27.448;2024-01-07T06:36:43;2.10;;;1.00;;
8574;SDS011;4325;42.520;27.448;2024-01-07T06:39:10;1.10;;;0.80;;
8574;SDS011;4325;42.520;27.448;2024-01-07T06:41:37;0.80;;;0.80;;
8574;SDS011;4325;42.520;27.448;2024-01-07T06:44:06;4.13;;;1.27;;
8574;SDS011;4325;42.520;27.448;2024-01-07T06:46:33;1.57;;;0.80;;
8574;SDS011;4325;42.520;27.448;2024-01-07T06:49:00;2.33;;;1.40;;
8574;SDS011;4325;42.520;27.448;2024-01-07T06:51:27;1.37;;;0.83;;
8574;SDS011;4325;42.520;27.448;2024-01-07T06:53:54;2.07;;;0.70;;
8574;SDS011;4325;42.520;27.448;2024-01-07T06:56:21;1.50;;;0.80;;
8574;SDS011;4325;42.520;27.448;2024-01-07T06:58:49;1.10;;;0.80;;
8574;SDS011;4325;42.520;27.448;2024-01-07T07:01:19;2.53;;;1.00;;
8574;SDS011;4325;42.520;27.448;2024-01-07T07:03:48;1.43;;;0.90;;
8574;SDS011;4325;42.520;27.448;2024-01-07T07:06:15;2.47;;;0.80;;
8574;SDS011;4325;42.520;27.448;2024-01-07T07:08:42;1.03;;;0.80;;
8574;SDS011;4325;42.520;27.448;2024-01-07T07:11:09;2.20;;;0.87;;
8574;SDS011;4325;42.520;27.448;2024-01-07T07:13:36;1.83;;;0.90;;
8574;SDS011;4325;42.520;27.448;2024-01-07T07:16:05;6.07;;;2.03;;
8574;SDS011;4325;42.520;27.448;2024-01-07T07:18:34;2.83;;;1.07;;
8574;SDS011;4325;42.520;27.448;2024-01-07T07:21:01;4.27;;;1.57;;
8574;SDS011;4325;42.520;27.448;2024-01-07T07:23:28;2.47;;;1.57;;
8574;SDS011;4325;42.520;27.448;2024-01-07T07:25:55;5.70;;;1.83;;
8574;SDS011;4325;42.520;27.448;2024-01-07T07:28:22;2.97;;;1.60;;
8574;SDS011;4325;42.520;27.448;2024-01-07T07:30:49;6.27;;;1.97;;
8574;SDS011;4325;42.520;27.448;2024-01-07T07:33:17;4.67;;;2.53;;
8574;SDS011;4325;42.520;27.448;2024-01-07T07:35:45;4.80;;;2.30;;
8574;SDS011;4325;42.520;27.448;2024-01-07T07:38:12;3.60;;;2.37;;
8574;SDS011;4325;42.520;27.448;2024-01-07T07:40:39;2.70;;;2.07;;
8574;SDS011;4325;42.520;27.448;2024-01-07T07:43:07;4.63;;;1.57;;
8574;SDS011;4325;42.520;27.448;2024-01-07T07:45:34;3.83;;;1.43;;
8574;SDS011;4325;42.520;27.448;2024-01-07T07:48:02;6.17;;;1.70;;
8574;SDS011;4325;42.520;27.448;2024-01-07T07:50:29;3.03;;;1.43;;
8574;SDS011;4325;42.520;27.448;2024-01-07T07:52:58;7.57;;;2.00;;
8574;SDS011;4325;42.520;27.448;2024-01-07T07:55:25;6.37;;;1.77;;
8574;SDS011;4325;42.520;27.448;2024-01-07T07:57:53;6.90;;;1.90;;
8574;SDS011;4325;42.520;27.448;2024-01-07T08:00:20;4.37;;;1.87;;
8574;SDS011;4325;42.520;27.448;2024-01-07T08:02:47;5.60;;;1.80;;
8574;SDS011;4325;42.520;27.448;2024-01-07T08:05:15;4.17;;;1.57;;
8574;SDS011;4325;42.520;27.448;2024-01-07T08:07:42;2.17;;;1.50;;
8574;SDS011;4325;42.520;27.448;2024-01-07T08:10:10;2.23;;;1.73;;
8574;SDS011;4325;42.520;27.448;2024-01-07T08:12:37;6.23;;;1.60;;
8574;SDS011;4325;42.520;27.448;2024-01-07T08:15:05;4.00;;;1.60;;
8574;SDS011;4325;42.520;27.448;2024-01-07T08:17:33;7.53;;;2.80;;
8574;SDS011;4325;42.520;27.448;2024-01-07T08:20:00;7.57;;;2.30;;
8574;SDS011;4325;42.520;27.448;2024-01-07T08:22:29;3.87;;;1.80;;
8574;SDS011;4325;42.520;27.448;2024-01-07T08:24:56;10.73;;;2.97;;
8574;SDS011;4325;42.520;27.448;2024-01-07T08:27:24;11.10;;;2.90;;
8574;SDS011;4325;42.520;27.448;2024-01-07T08:29:52;2.43;;;1.70;;
8574;SDS011;4325;42.520;27.448;2024-01-07T08:32:19;4.57;;;2.00;;
8574;SDS011;4325;42.520;27.448;2024-01-07T08:34:47;6.93;;;1.80;;
8574;SDS011;4325;42.520;27.448;2024-01-07T08:37:14;8.17;;;1.97;;
8574;SDS011;4325;42.520;27.448;2024-01-07T08:39:41;7.67;;;1.70;;
8574;SDS011;4325;42.520;27.448;2024-01-07T08:42:08;6.63;;;1.60;;
8574;SDS011;4325;42.520;27.448;2024-01-07T08:44:37;8.70;;;2.93;;
8574;SDS011;4325;42.520;27.448;2024-01-07T08:47:04;5.20;;;2.47;;
8574;SDS011;4325;42.520;27.448;2024-01-07T08:49:31;8.97;;;2.53;;
8574;SDS011;4325;42.520;27.448;2024-01-07T08:51:59;9.23;;;1.97;;
8574;SDS011;4325;42.520;27.448;2024-01-07T08:54:26;7.73;;;1.87;;
8574;SDS011;4325;42.520;27.448;2024-01-07T08:56:53;10.30;;;1.80;;
8574;SDS011;4325;42.520;27.448;2024-01-07T08:59:20;6.07;;;2.10;;
8574;SDS011;4325;42.520;27.448;2024-01-07T09:01:49;6.07;;;1.70;;
8574;SDS011;4325;42.520;27.448;2024-01-07T09:04:16;9.17;;;2.60;;
8574;SDS011;4325;42.520;27.448;2024-01-07T09:06:43;15.73;;;2.67;;
8574;SDS011;4325;42.520;27.448;2024-01-07T09:09:10;9.13;;;2.10;;
8574;SDS011;4325;42.520;27.448;2024-01-07T09:11:38;8.23;;;2.87;;
8574;SDS011;4325;42.520;27.448;2024-01-07T09:14:05;5.23;;;2.30;;
8574;SDS011;4325;42.520;27.448;2024-01-07T09:16:32;15.03;;;2.43;;
8574;SDS011;4325;42.520;27.448;2024-01-07T09:19:00;11.90;;;2.30;;
8574;SDS011;4325;42.520;27.448;2024-01-07T09:21:27;5.23;;;2.10;;
8574;SDS011;4325;42.520;27.448;2024-01-07T09:23:54;16.03;;;3.27;;
8574;SDS011;4325;42.520;27.448;2024-01-07T09:26:21;4.97;;;2.10;;
8574;SDS011;4325;42.520;27.448;2024-01-07T09:28:48;5.00;;;1.90;;
8574;SDS011;4325;42.520;27.448;2024-01-07T09:31:17;5.80;;;2.30;;
8574;SDS011;4325;42.520;27.448;2024-01-07T09:33:44;6.93;;;2.23;;
8574;SDS011;4325;42.520;27.448;2024-01-07T09:36:12;13.83;;;2.23;;
8574;SDS011;4325;42.520;27.448;2024-01-07T09:38:39;10.97;;;3.40;;
8574;SDS011;4325;42.520;27.448;2024-01-07T09:41:07;8.63;;;2.77;;
8574;SDS011;4325;42.520;27.448;2024-01-07T09:43:34;8.37;;;2.43;;
8574;SDS011;4325;42.520;27.448;2024-01-07T09:46:01;9.83;;;3.43;;
8574;SDS011;4325;42.520;27.448;2024-01-07T09:48:29;10.40;;;3.30;;
8574;SDS011;4325;42.520;27.448;2024-01-07T09:50:56;8.70;;;2.40;;
8574;SDS011;4325;42.520;27.448;2024-01-07T09:53:27;10.23;;;2.60;;
8574;SDS011;4325;42.520;27.448;2024-01-07T09:56:01;12.83;;;2.67;;
8574;SDS011;4325;42.520;27.448;2024-01-07T09:58:34;19.20;;;2.90;;
8574;SDS011;4325;42.520;27.448;2024-01-07T10:01:01;14.77;;;3.10;;
8574;SDS011;4325;42.520;27.448;2024-01-07T10:03:30;17.03;;;3.10;;
8574;SDS011;4325;42.520;27.448;2024-01-07T10:05:57;12.93;;;3.67;;
8574;SDS011;4325;42.520;27.448;2024-01-07T10:08:25;19.03;;;3.20;;
8574;SDS011;4325;42.520;27.448;2024-01-07T10:10:52;17.70;;;3.03;;
8574;SDS011;4325;42.520;27.448;2024-01-07T10:13:20;17.20;;;3.50;;
8574;SDS011;4325;42.520;27.448;2024-01-07T10:15:48;13.07;;;3.80;;
8574;SDS011;4325;42.520;27.448;2024-01-07T10:18:15;21.00;;;5.10;;
8574;SDS011;4325;42.520;27.448;2024-01-07T10:20:43;12.53;;;3.30;;
8574;SDS011;4325;42.520;27.448;2024-01-07T10:23:10;24.00;;;3.97;;
8574;SDS011;4325;42.520;27.448;2024-01-07T10:25:40;20.50;;;4.83;;
8574;SDS011;4325;42.520;27.448;2024-01-07T10:28:07;23.03;;;4.37;;
8574;SDS011;4325;42.520;27.448;2024-01-07T10:30:38;19.17;;;3.70;;
8574;SDS011;4325;42.520;27.448;2024-01-07T10:33:05;26.80;;;5.00;;
8574;SDS011;4325;42.520;27.448;2024-01-07T10:35:34;23.57;;;5.07;;
8574;SDS011;4325;42.520;27.448;2024-01-07T10:38:04;11.20;;;3.13;;
8574;SDS011;4325;42.520;27.448;2024-01-07T10:40:31;20.90;;;4.57;;
8574;SDS011;4325;42.520;27.448;2024-01-07T10:43:00;24.90;;;4.17;;
8574;SDS011;4325;42.520;27.448;2024-01-07T10:45:29;23.57;;;3.80;;
8574;SDS011;4325;42.520;27.448;2024-01-07T10:47:57;17.90;;;3.83;;
8574;SDS011;4325;42.520;27.448;2024-01-07T10:50:31;21.80;;;4.70;;
8574;SDS011;4325;42.520;27.448;2024-01-07T10:53:01;24.60;;;4.30;;
8574;SDS011;4325;42.520;27.448;2024-01-07T10:55:33;24.80;;;4.60;;
8574;SDS011;4325;42.520;27.448;2024-01-07T10:58:04;20.63;;;4.67;;
8574;SDS011;4325;42.520;27.448;2024-01-07T11:00:32;22.37;;;4.13;;
8574;SDS011;4325;42.520;27.448;2024-01-07T11:03:02;22.83;;;5.10;;
8574;SDS011;4325;42.520;27.448;2024-01-07T11:05:37;14.80;;;4.07;;
8574;SDS011;4325;42.520;27.448;2024-01-07T11:08:12;16.90;;;4.30;;
8574;SDS011;4325;42.520;27.448;2024-01-07T11:10:48;21.80;;;4.03;;
8574;SDS011;4325;42.520;27.448;2024-01-07T11:16:02;22.47;;;4.90;;
8574;SDS011;4325;42.520;27.448;2024-01-07T11:18:30;20.13;;;3.73;;
8574;SDS011;4325;42.520;27.448;2024-01-07T11:21:00;16.10;;;4.37;;
8574;SDS011;4325;42.520;27.448;2024-01-07T11:23:29;22.57;;;4.30;;
8574;SDS011;4325;42.520;27.448;2024-01-07T11:25:56;22.40;;;4.20;;
8574;SDS011;4325;42.520;27.448;2024-01-07T11:28:47;15.20;;;4.20;;
8574;SDS011;4325;42.520;27.448;2024-01-07T11:31:16;15.07;;;3.87;;
8574;SDS011;4325;42.520;27.448;2024-01-07T11:33:45;13.90;;;3.57;;
8574;SDS011;4325;42.520;27.448;2024-01-07T11:36:13;20.53;;;5.27;;
8574;SDS011;4325;42.520;27.448;2024-01-07T11:38:41;13.40;;;3.13;;
8574;SDS011;4325;42.520;27.448;2024-01-07T11:41:09;19.90;;;3.63;;
8574;SDS011;4325;42.520;27.448;2024-01-07T11:43:38;16.30;;;3.07;;
8574;SDS011;4325;42.520;27.448;2024-01-07T11:46:19;18.13;;;2.97;;
8574;SDS011;4325;42.520;27.448;2024-01-07T11:48:47;17.60;;;3.50;;
8574;SDS011;4325;42.520;27.448;2024-01-07T11:51:14;23.03;;;3.63;;
8574;SDS011;4325;42.520;27.448;2024-01-07T11:53:41;8.40;;;2.70;;
8574;SDS011;4325;42.520;27.448;2024-01-07T11:56:12;13.70;;;3.13;;
8574;SDS011;4325;42.520;27.448;2024-01-07T11:58:39;13.43;;;2.77;;
8574;SDS011;4325;42.520;27.448;2024-01-07T12:01:07;13.07;;;2.50;;
8574;SDS011;4325;42.520;27.448;2024-01-07T12:03:35;14.57;;;3.30;;
8574;SDS011;4325;42.520;27.448;2024-01-07T12:06:20;10.53;;;3.40;;
8574;SDS011;4325;42.520;27.448;2024-01-07T12:08:47;16.63;;;2.70;;
8574;SDS011;4325;42.520;27.448;2024-01-07T12:11:15;15.60;;;3.53;;
8574;SDS011;4325;42.520;27.448;2024-01-07T12:13:42;10.63;;;3.17;;
8574;SDS011;4325;42.520;27.448;2024-01-07T12:16:12;18.37;;;3.20;;
8574;SDS011;4325;42.520;27.448;2024-01-07T12:18:41;23.10;;;3.63;;
8574;SDS011;4325;42.520;27.448;2024-01-07T12:21:08;14.60;;;3.93;;
8574;SDS011;4325;42.520;27.448;2024-01-07T12:23:35;12.20;;;3.00;;
8574;SDS011;4325;42.520;27.448;2024-01-07T12:26:09;16.87;;;3.73;;
8574;SDS011;4325;42.520;27.448;2024-01-07T12:28:37;16.40;;;4.03;;
8574;SDS011;4325;42.520;27.448;2024-01-07T12:31:04;16.40;;;4.10;;
8574;SDS011;4325;42.520;27.448;2024-01-07T12:33:32;25.20;;;4.43;;
8574;SDS011;4325;42.520;27.448;2024-01-07T12:36:00;18.80;;;3.80;;
8574;SDS011;4325;42.520;27.448;2024-01-07T12:38:28;18.27;;;3.43;;
8574;SDS011;4325;42.520;27.448;2024-01-07T12:40:55;16.73;;;4.83;;
8574;SDS011;4325;42.520;27.448;2024-01-07T12:43:23;24.17;;;4.70;;
8574;SDS011;4325;42.520;27.448;2024-01-07T12:45:50;16.83;;;3.77;;
8574;SDS011;4325;42.520;27.448;2024-01-07T12:48:18;23.43;;;4.37;;
8574;SDS011;4325;42.520;27.448;2024-01-07T12:50:45;22.83;;;4.57;;
8574;SDS011;4325;42.520;27.448;2024-01-07T12:53:13;22.33;;;4.73;;
8574;SDS011;4325;42.520;27.448;2024-01-07T12:55:40;25.53;;;4.50;;
8574;SDS011;4325;42.520;27.448;2024-01-07T12:58:07;20.77;;;4.67;;
8574;SDS011;4325;42.520;27.448;2024-01-07T13:00:34;21.17;;;4.03;;
8574;SDS011;4325;42.520;27.448;2024-01-07T13:03:02;13.37;;;4.20;;
8574;SDS011;4325;42.520;27.448;2024-01-07T13:05:32;16.40;;;4.10;;
8574;SDS011;4325;42.520;27.448;2024-01-07T13:07:59;18.63;;;4.03;;
8574;SDS011;4325;42.520;27.448;2024-01-07T13:10:28;13.70;;;3.23;;
8574;SDS011;4325;42.520;27.448;2024-01-07T13:12:55;18.20;;;3.63;;
8574;SDS011;4325;42.520;27.448;2024-01-07T13:15:22;17.47;;;4.00;;
8574;SDS011;4325;42.520;27.448;2024-01-07T13:17:49;13.03;;;2.90;;
8574;SDS011;4325;42.520;27.448;2024-01-07T13:20:16;22.37;;;4.43;;
8574;SDS011;4325;42.520;27.448;2024-01-07T13:22:45;13.00;;;3.23;;
8574;SDS011;4325;42.520;27.448;2024-01-07T13:25:12;13.60;;;4.10;;
8574;SDS011;4325;42.520;27.448;2024-01-07T13:27:41;11.60;;;2.80;;
8574;SDS011;4325;42.520;27.448;2024-01-07T13:30:09;19.20;;;4.90;;
8574;SDS011;4325;42.520;27.448;2024-01-07T13:32:36;14.33;;;5.23;;
8574;SDS011;4325;42.520;27.448;2024-01-07T13:35:04;14.17;;;3.33;;
8574;SDS011;4325;42.520;27.448;2024-01-07T13:37:31;14.03;;;4.67;;
8574;SDS011;4325;42.520;27.448;2024-01-07T13:39:58;11.83;;;3.73;;
8574;SDS011;4325;42.520;27.448;2024-01-07T13:42:26;14.97;;;3.53;;
8574;SDS011;4325;42.520;27.448;2024-01-07T13:44:54;11.80;;;3.73;;
8574;SDS011;4325;42.520;27.448;2024-01-07T13:47:21;11.60;;;3.20;;
8574;SDS011;4325;42.520;27.448;2024-01-07T13:49:48;11.93;;;2.70;;
8574;SDS011;4325;42.520;27.448;2024-01-07T13:52:15;10.23;;;3.07;;
8574;SDS011;4325;42.520;27.448;2024-01-07T13:54:42;19.20;;;3.47;;
8574;SDS011;4325;42.520;27.448;2024-01-07T13:57:10;12.63;;;3.47;;
8574;SDS011;4325;42.520;27.448;2024-01-07T13:59:38;18.23;;;4.43;;
8574;SDS011;4325;42.520;27.448;2024-01-07T14:02:07;17.93;;;3.83;;
8574;SDS011;4325;42.520;27.448;2024-01-07T14:04:34;15.27;;;4.23;;
8574;SDS011;4325;42.520;27.448;2024-01-07T14:07:02;17.17;;;3.40;;
8574;SDS011;4325;42.520;27.448;2024-01-07T14:09:29;17.83;;;3.57;;
8574;SDS011;4325;42.520;27.448;2024-01-07T14:11:57;13.63;;;3.70;;
8574;SDS011;4325;42.520;27.448;2024-01-07T14:14:24;11.40;;;3.07;;
8574;SDS011;4325;42.520;27.448;2024-01-07T14:16:51;13.47;;;4.73;;
8574;SDS011;4325;42.520;27.448;2024-01-07T14:19:20;14.20;;;3.03;;
8574;SDS011;4325;42.520;27.448;2024-01-07T14:21:47;17.63;;;3.37;;
8574;SDS011;4325;42.520;27.448;2024-01-07T14:24:14;17.83;;;2.70;;
8574;SDS011;4325;42.520;27.448;2024-01-07T14:26:42;13.67;;;2.70;;
8574;SDS011;4325;42.520;27.448;2024-01-07T14:29:09;10.47;;;3.57;;
8574;SDS011;4325;42.520;27.448;2024-01-07T14:31:38;16.13;;;3.80;;
8574;SDS011;4325;42.520;27.448;2024-01-07T14:34:07;11.60;;;2.87;;
8574;SDS011;4325;42.520;27.448;2024-01-07T14:36:40;20.87;;;3.37;;
8574;SDS011;4325;42.520;27.448;2024-01-07T14:39:08;14.40;;;3.20;;
8574;SDS011;4325;42.520;27.448;2024-01-07T14:41:35;13.27;;;3.50;;
8574;SDS011;4325;42.520;27.448;2024-01-07T14:44:03;21.33;;;3.70;;
8574;SDS011;4325;42.520;27.448;2024-01-07T14:46:30;23.70;;;3.17;;
8574;SDS011;4325;42.520;27.448;2024-01-07T14:48:57;15.87;;;3.87;;
8574;SDS011;4325;42.520;27.448;2024-01-07T14:51:24;18.93;;;4.67;;
8574;SDS011;4325;42.520;27.448;2024-01-07T14:53:53;17.17;;;4.17;;
8574;SDS011;4325;42.520;27.448;2024-01-07T14:56:20;17.30;;;4.43;;
8574;SDS011;4325;42.520;27.448;2024-01-07T14:58:48;21.23;;;4.67;;
8574;SDS011;4325;42.520;27.448;2024-01-07T15:01:15;26.80;;;4.00;;